Thursday, September 20, 2018, 6:45 PM EDT
Back to Local

KORH, Worcester Regional Airport

Location: Worcester, MA, United States Lat: 42.267
Local Time: 6:45 PM EDT (22:45 GMT) Lon: -71.867
Time Zone: US/Eastern Elev: 1010 ft

Show me the last for .
Show Coded

Time T Td Feel RH Dir Speed Gust Alt SLP Vis Weather Sky Remarks
2018-09-20 18:01 60 54 - 80 110° 5 - 30.27 - 10 BKN017 OVC027 None
2018-09-20 17:54 60 55 - 83 90° 6 - 30.27 30.27 10 SCT025 OVC035 None
2018-09-20 16:54 62 54 - 74 60° 6 - 30.25 30.25 10 FEW025 OVC037 None
2018-09-20 15:54 62 54 - 74 Variable 6 - 30.25 30.25 10 SCT025 BKN039 None
2018-09-20 15:06 63 53 - 70 70° 6 - 30.25 - 10 SCT025 BKN039 None
2018-09-20 14:54 63 54 - 72 Variable 5 - 30.24 30.24 10 BKN025 OVC038 None
2018-09-20 14:52 63 54 - 72 Variable 6 - 30.25 - 10 BKN025 BKN034 OVC041 None
2018-09-20 13:54 64 52 - 64 Variable 3 - 30.25 30.25 10 BKN039 6-hr Min Temp (2pm): 55.9°F
6-hr Max Temp (2pm): 64.0°F
2018-09-20 12:54 62 53 - 72 Variable 3 - 30.28 30.28 10 SCT022 OVC037 None
2018-09-20 12:46 62 53 - 72 80° 6 - 30.27 - 10 BKN023 BKN029 OVC036 None
2018-09-20 11:54 61 53 - 75 20° 6 - 30.28 30.28 10 FEW017 SCT024 BKN043 None
2018-09-20 10:54 60 53 - 77 Variable 6 - 30.28 30.29 10 FEW014 BKN023 OVC044 None
2018-09-20 10:27 59 54 - 83 30° 7 - 30.27 - 10 FEW012 BKN018 OVC045 None
2018-09-20 09:54 57 53 - 86 30° 7 - 30.27 30.27 10 OVC014 None
2018-09-20 08:54 56 52 - 86 60° 10 - 30.23 30.24 10 OVC013 None
2018-09-20 07:54 55 54 - 96 40° 7 - 30.22 30.22 10 SCT007 OVC013 6-hr Min Temp (8am): 55.0°F
6-hr Max Temp (8am): 55.9°F
2018-09-20 06:54 55 53 - 93 40° 5 - 30.20 30.20 10 FEW008 OVC016 None
2018-09-20 06:51 55 54 - 93 50° 6 - 30.19 - 10 FEW008 OVC016 None
2018-09-20 06:33 55 53 - 93 50° 8 - 30.18 - 10 OVC011 None
2018-09-20 06:05 55 53 - 93 50° 8 - 30.17 - 10 OVC009 None
2018-09-20 05:54 55 53 - 93 50° 8 - 30.16 30.16 10 OVC012 None
2018-09-20 05:43 55 53 - 93 60° 9 - 30.16 - 10 BKN006 OVC012 None
2018-09-20 05:32 55 53 - 93 50° 9 - 30.16 - 10 SCT006 OVC012 None
2018-09-20 04:54 55 54 - 96 50° 8 - 30.15 30.15 10 BKN009 OVC015 None
2018-09-20 04:43 55 54 - 96 60° 6 - 30.15 - 10 SCT009 OVC015 None
2018-09-20 04:33 55 54 - 96 40° 6 - 30.15 - 10 BKN009 OVC015 None
2018-09-20 04:25 56 54 - 93 40° 6 - 30.15 - 10 SCT007 OVC017 None
2018-09-20 03:54 56 54 - 93 60° 8 - 30.14 30.15 10 BKN008 OVC014 None
2018-09-20 03:17 56 54 - 93 40° 8 - 30.14 - 10 FEW008 BKN013 OVC021 None
2018-09-20 03:10 56 54 - 93 40° 6 - 30.14 - 10 FEW008 BKN015 OVC021 None
2018-09-20 02:54 56 54 - 93 30° 7 - 30.15 30.15 10 BKN009 OVC016 None
2018-09-20 02:28 56 54 - 93 30° 8 - 30.14 - 10 BKN009 OVC016 None
2018-09-20 01:54 56 54 - 93 50° 8 - 30.13 30.13 10 FEW006 BKN020 OVC050 6-hr Precip Total (2am): 0.00"
6-hr Min Temp (2am): 55.9°F
6-hr Max Temp (2am): 59.0°F
2018-09-20 01:44 56 54 - 93 50° 8 - 30.12 - 10 FEW008 BKN012 OVC050 None
2018-09-20 01:35 56 54 - 93 40° 7 - 30.13 - 10 SCT006 OVC016 None
2018-09-20 00:54 56 55 - 96 50° 6 - 30.12 30.12 10 OVC006 24-hr Min Temp (1am): 55.9°F
24-hr Max Temp (1am): 70.0°F
2018-09-20 00:32 56 55 - 96 40° 5 - 30.12 - 10 BKN008 OVC012 None
2018-09-19 23:54 56 54 - 93 40° 6 - 30.13 30.13 10 BKN010 OVC016 None
2018-09-19 23:50 55 54 - 93 50° 8 - 30.13 - 10 BKN010 OVC016 None
2018-09-19 22:54 56 54 - 93 40° 6 - 30.11 30.12 10 SCT008 OVC016 6-hr Precip Total (11pm): 0.00"
2018-09-19 22:31 56 54 - 93 40° 5 - 30.11 - 10 BKN008 OVC015 None
2018-09-19 22:24 56 54 - 93 60° 9 - 30.11 - 10 BKN010 OVC017 None
2018-09-19 21:54 56 55 - 96 50° 6 - 30.10 30.10 10 BKN009 OVC019 1-hr Precip Total: Trace
2018-09-19 20:54 58 56 - 93 70° 8 - 30.09 30.09 10 BKN008 OVC012 None
2018-09-19 20:24 59 57 - 93 80° 8 - 30.07 - 10 OVC009 None
2018-09-19 20:13 59 57 - 93 70° 6 - 30.07 - 10 OVC010 None
2018-09-19 19:54 59 57 - 93 50° 3 - 30.06 30.06 10 BKN009 OVC014 6-hr Min Temp (8pm): 59.0°F
6-hr Max Temp (8pm): 62.1°F
2018-09-19 18:54 60 57 - 89 70° 6 - 30.04 30.04 10 OVC011 None

Support USWX by starting your Amazon purchase here.